Time;durP1;ratioP1;P1;durP2;ratioP2;P2;SDS_P1;SDS_P2;PMS_P1;PMS_P2;Temp;Humidity;BMP_temperature;BMP_pressure;BME280_temperature;BME280_humidity;BME280_pressure;Samples;Min_cycle;Max_cycle;Signal;HPM_P1;HPM_P2
2022/07/20 00:01:19;;;;;;;1.90;1.73;;;;;;;18.14;100.00;62740.09;5085741;28;20268;-75
2022/07/20 00:03:48;;;;;;;3.73;1.83;;;;;;;18.26;100.00;62760.25;5088781;28;20200;-76
2022/07/20 00:06:17;;;;;;;4.00;2.40;;;;;;;18.09;100.00;62734.16;5086189;28;20646;-76
2022/07/20 00:11:29;;;;;;;3.90;2.70;;;;;;;18.03;100.00;62732.84;5093397;28;20210;-75
2022/07/20 00:13:59;;;;;;;5.30;3.07;;;;;;;17.92;100.00;62718.41;5094182;28;20207;-75
2022/07/20 00:16:28;;;;;;;6.73;2.77;;;;;;;17.78;100.00;62705.88;5095143;28;20191;-74
2022/07/20 00:18:57;;;;;;;7.97;3.43;;;;;;;17.87;100.00;62715.59;5093969;28;20712;-76
2022/07/20 00:21:24;;;;;;;3.43;2.07;;;;;;;17.88;100.00;62716.66;5079529;28;20235;-75
2022/07/20 00:23:51;;;;;;;5.47;2.27;;;;;;;17.68;100.00;62695.63;5082685;28;20702;-75
2022/07/20 00:26:19;;;;;;;3.80;2.10;;;;;;;17.81;100.00;62709.13;5073845;28;20203;-76
2022/07/20 00:28:50;;;;;;;2.90;2.10;;;;;;;17.68;100.00;62701.31;5073680;28;20196;-74
2022/07/20 00:31:21;;;;;;;3.37;2.10;;;;;;;17.64;100.00;62689.28;5073638;28;20215;-74
2022/07/20 00:33:49;;;;;;;4.40;2.40;;;;;;;17.54;100.00;62678.50;5074042;28;20212;-76
2022/07/20 00:36:19;;;;;;;2.40;2.17;;;;;;;16.53;100.00;62572.69;5086607;27;20200;-74
2022/07/20 00:38:47;;;;;;;4.67;2.40;;;;;;;17.91;100.00;62714.75;5073512;28;20577;-75
2022/07/20 00:41:15;;;;;;;7.23;2.43;;;;;;;17.13;100.00;62641.97;5073569;28;20690;-75
2022/07/20 00:43:59;;;;;;;13.47;2.97;;;;;;;16.80;100.00;62593.53;5065517;28;20617;-77
2022/07/20 00:46:27;;;;;;;8.07;3.27;;;;;;;17.61;100.00;62686.03;5073184;28;20204;-74
2022/07/20 00:48:54;;;;;;;6.23;2.60;;;;;;;17.86;100.00;62714.50;5082182;28;20250;-77
2022/07/20 00:51:23;;;;;;;6.37;3.30;;;;;;;17.62;100.00;62684.00;5086215;28;20200;-75
2022/07/20 00:53:51;;;;;;;4.33;3.13;;;;;;;17.85;100.00;62713.44;5087155;28;20211;-76
2022/07/20 00:56:19;;;;;;;8.90;3.87;;;;;;;16.77;100.00;62598.00;5085720;28;20207;-75
2022/07/20 00:58:47;;;;;;;9.37;3.40;;;;;;;17.69;100.00;62699.81;5087096;28;20195;-75
2022/07/20 01:01:15;;;;;;;6.57;3.60;;;;;;;17.66;100.00;62690.88;5079650;28;20666;-77
2022/07/20 01:03:44;;;;;;;7.17;3.40;;;;;;;17.12;100.00;62632.63;5087303;28;20558;-76
2022/07/20 01:06:12;;;;;;;6.23;3.53;;;;;;;16.76;100.00;62589.22;5072987;28;20326;-76
2022/07/20 01:08:42;;;;;;;14.37;6.70;;;;;;;17.00;100.00;62624.84;5073411;28;20636;-74
2022/07/20 01:11:09;;;;;;;22.57;10.87;;;;;;;17.73;100.00;62700.47;5073117;28;20276;-75
2022/07/20 01:13:36;;;;;;;24.10;9.73;;;;;;;17.76;100.00;62708.88;5073327;28;20196;-75
2022/07/20 01:16:04;;;;;;;17.33;7.70;;;;;;;16.84;100.00;62605.56;5072161;28;20658;-74
2022/07/20 01:18:31;;;;;;;8.87;5.40;;;;;;;16.28;100.00;62540.59;5072923;28;20716;-75
2022/07/20 01:21:02;;;;;;;5.90;3.70;;;;;;;16.84;100.00;62605.56;5085716;28;20672;-75
2022/07/20 01:23:29;;;;;;;5.37;3.27;;;;;;;17.44;100.00;62667.69;5067751;28;20296;-76
2022/07/20 01:25:58;;;;;;;4.77;3.40;;;;;;;16.90;100.00;62612.03;5090924;28;20195;-76
2022/07/20 01:28:28;;;;;;;8.20;3.13;;;;;;;16.29;100.00;62546.25;5092614;28;20230;-76
2022/07/20 01:30:55;;;;;;;12.03;3.83;;;;;;;16.52;100.00;62568.50;5091862;28;20265;-77
2022/07/20 01:33:23;;;;;;;9.80;5.27;;;;;;;17.10;100.00;62633.59;5089030;28;20284;-75
2022/07/20 01:35:51;;;;;;;10.83;3.53;;;;;;;15.95;100.00;62510.72;5073300;28;20197;-77
2022/07/20 01:38:21;;;;;;;9.83;5.10;;;;;;;17.19;100.00;62645.88;5073115;28;20630;-76
2022/07/20 01:40:50;;;;;;;35.27;19.37;;;;;;;16.94;100.00;62616.34;5071667;28;20669;-76
2022/07/20 01:43:17;;;;;;;33.40;18.37;;;;;;;17.04;100.00;62627.13;5072312;28;20224;-75
2022/07/20 01:45:44;;;;;;;15.60;7.87;;;;;;;17.12;100.00;62635.22;5072615;28;20670;-77
2022/07/20 01:48:13;;;;;;;13.03;6.07;;;;;;;17.11;100.00;62634.66;5072524;28;20208;-75
2022/07/20 01:50:41;;;;;;;15.80;8.33;;;;;;;16.19;100.00;62532.91;5072655;28;20196;-76
2022/07/20 01:53:09;;;;;;;20.87;13.00;;;;;;;17.02;100.00;62624.97;5072655;28;20196;-75
2022/07/20 01:55:38;;;;;;;35.77;17.73;;;;;;;16.87;100.00;62613.94;5072842;28;20295;-76
2022/07/20 01:58:06;;;;;;;14.83;5.53;;;;;;;16.52;100.00;62566.47;5072285;28;20210;-76
2022/07/20 02:00:33;;;;;;;18.20;11.53;;;;;;;16.73;100.00;62588.56;5071994;28;20203;-75
2022/07/20 02:03:01;;;;;;;19.07;9.70;;;;;;;16.87;100.00;62608.78;5089572;28;20232;-76
2022/07/20 02:05:29;;;;;;;19.90;9.70;;;;;;;16.65;100.00;62579.94;5092010;28;20546;-75
2022/07/20 02:07:59;;;;;;;14.70;8.13;;;;;;;16.89;100.00;62605.81;5073055;28;20200;-76
2022/07/20 02:10:27;;;;;;;21.77;12.20;;;;;;;15.99;100.00;62504.75;5071607;28;20207;-76
2022/07/20 02:12:55;;;;;;;19.50;10.03;;;;;;;16.96;100.00;62618.50;5071381;28;20212;-75
2022/07/20 02:18:09;;;;;;;16.53;9.63;;;;;;;16.98;100.00;62618.09;5061293;28;20223;-75
2022/07/20 02:20:37;;;;;;;19.77;10.23;;;;;;;16.54;100.00;62573.75;5073103;28;20655;-75
2022/07/20 02:23:06;;;;;;;20.03;10.37;;;;;;;17.01;100.00;62623.88;5083972;28;20712;-75
2022/07/20 02:25:34;;;;;;;18.77;9.83;;;;;;;17.02;100.00;62624.97;5071463;28;20200;-77
2022/07/20 02:28:04;;;;;;;22.43;12.03;;;;;;;16.95;100.00;62627.16;5065821;28;20211;-77
2022/07/20 02:30:31;;;;;;;26.20;11.57;;;;;;;16.97;100.00;62614.41;5090802;28;20207;-77
2022/07/20 02:33:01;;;;;;;10.37;6.87;;;;;;;16.99;100.00;62619.16;5091111;28;20192;-74
2022/07/20 02:35:28;;;;;;;23.10;12.10;;;;;;;16.86;100.00;62605.16;5090655;28;20344;-75
2022/07/20 02:37:56;;;;;;;19.90;10.37;;;;;;;16.89;100.00;62606.34;5091407;28;20234;-76
2022/07/20 02:40:23;;;;;;;14.23;8.00;;;;;;;17.01;100.00;62623.88;5090724;28;20199;-75
2022/07/20 02:42:51;;;;;;;19.00;9.77;;;;;;;17.12;100.00;62635.75;5090973;27;20219;-78
2022/07/20 02:45:21;;;;;;;12.57;6.57;;;;;;;17.14;100.00;62634.78;5072736;28;20196;-76
2022/07/20 02:47:50;;;;;;;16.27;8.63;;;;;;;17.16;100.00;62640.06;5071635;28;20253;-75
2022/07/20 02:50:17;;;;;;;13.93;7.90;;;;;;;17.14;100.00;62637.38;5071244;28;20196;-76
2022/07/20 02:52:48;;;;;;;7.90;4.03;;;;;;;17.22;100.00;62641.38;5070137;28;20219;-76
2022/07/20 02:55:16;;;;;;;7.40;4.67;;;;;;;17.32;100.00;62657.31;5071428;28;20203;-76
2022/07/20 02:57:44;;;;;;;5.57;2.73;;;;;;;16.59;100.00;62576.59;5082785;28;20200;-75
2022/07/20 03:00:17;;;;;;;5.13;2.80;;;;;;;17.36;100.00;62663.66;5084215;28;20210;-79
2022/07/20 03:02:47;;;;;;;5.67;2.97;;;;;;;16.08;100.00;62529.31;5090756;28;20261;-75
2022/07/20 03:05:14;;;;;;;7.73;3.80;;;;;;;17.28;100.00;62653.00;5088771;28;20217;-77
2022/07/20 03:07:44;;;;;;;9.43;5.00;;;;;;;16.97;100.00;62619.56;5071414;28;20728;-76
2022/07/20 03:10:11;;;;;;;8.33;4.67;;;;;;;17.10;100.00;62630.47;5084499;28;20191;-75
2022/07/20 03:12:40;;;;;;;10.20;5.70;;;;;;;15.87;100.00;62499.53;5079535;28;20242;-76
2022/07/20 03:15:08;;;;;;;17.50;5.90;;;;;;;16.94;100.00;62610.66;5090024;28;20748;-76
2022/07/20 03:17:42;;;;;;;12.57;5.93;;;;;;;16.77;100.00;62595.44;5090621;28;20222;-76
2022/07/20 03:20:20;;;;;;;22.17;6.87;;;;;;;16.71;100.00;62588.97;5090379;28;20210;-77
2022/07/20 03:22:47;;;;;;;16.20;7.07;;;;;;;17.15;100.00;62633.81;5091171;28;20570;-76
2022/07/20 03:25:17;;;;;;;25.53;8.93;;;;;;;16.94;100.00;62613.22;5089911;28;20204;-75
2022/07/20 03:27:46;;;;;;;18.50;8.10;;;;;;;16.68;100.00;62588.31;5089980;28;20210;-76
2022/07/20 03:30:16;;;;;;;14.40;6.70;;;;;;;16.77;100.00;62593.41;5089786;28;20204;-77
2022/07/20 03:32:44;;;;;;;8.33;4.93;;;;;;;16.77;100.00;62595.97;5088628;28;20207;-75
2022/07/20 03:35:13;;;;;;;7.30;4.30;;;;;;;16.80;100.00;62598.69;5088968;28;20210;-75
2022/07/20 03:37:43;;;;;;;23.77;6.00;;;;;;;16.79;100.00;62597.59;5089171;28;20245;-76
2022/07/20 03:40:16;;;;;;;16.23;5.30;;;;;;;16.83;100.00;62599.88;5090158;28;20203;-77
2022/07/20 03:42:45;;;;;;;12.70;5.10;;;;;;;16.82;100.00;62603.41;5088580;28;20223;-75
2022/07/20 03:45:13;;;;;;;15.90;4.97;;;;;;;15.69;100.00;62480.16;5089572;28;20199;-75
2022/07/20 03:47:41;;;;;;;13.27;4.50;;;;;;;16.70;100.00;62591.00;5088930;28;20206;-76
2022/07/20 03:50:09;;;;;;;15.00;5.13;;;;;;;16.63;100.00;62577.78;5090142;28;20204;-75
2022/07/20 03:52:40;;;;;;;12.80;4.47;;;;;;;16.83;100.00;62604.47;5070762;28;20201;-75
2022/07/20 03:55:09;;;;;;;20.57;4.73;;;;;;;15.85;100.00;62494.28;5070897;28;20207;-77
2022/07/20 03:57:38;;;;;;;18.63;4.33;;;;;;;16.84;100.00;62605.56;5069380;28;20196;-76
2022/07/20 04:00:11;;;;;;;14.73;3.77;;;;;;;16.15;100.00;62526.59;5070864;28;20686;-76
2022/07/20 04:02:41;;;;;;;17.93;4.00;;;;;;;16.88;100.00;62610.41;5070936;28;20227;-76
2022/07/20 04:05:19;;;;;;;6.63;3.00;;;;;;;17.02;100.00;62621.84;5072357;28;20570;-78
2022/07/20 04:07:49;;;;;;;12.80;2.93;;;;;;;17.09;100.00;62624.25;5074258;28;20222;-75
2022/07/20 04:10:20;;;;;;;10.00;3.27;;;;;;;17.18;100.00;62642.22;5079233;28;20191;-76
2022/07/20 04:12:48;;;;;;;19.37;3.73;;;;;;;17.18;100.00;62641.69;5081659;27;20204;-75
2022/07/20 04:15:15;;;;;;;11.63;3.30;;;;;;;17.21;100.00;62642.88;5074307;28;20198;-77
2022/07/20 04:17:50;;;;;;;13.10;2.90;;;;;;;16.82;100.00;62598.25;5074010;28;20702;-75
2022/07/20 04:20:21;;;;;;;5.97;2.67;;;;;;;17.38;100.00;62661.22;5078016;28;20285;-76
2022/07/20 04:23:06;;;;;;;11.33;3.40;;;;;;;17.54;100.00;62678.50;5082127;28;20235;-77
2022/07/20 04:25:34;;;;;;;11.40;3.17;;;;;;;17.05;100.00;62630.78;5063585;28;20223;-76
2022/07/20 04:28:01;;;;;;;15.23;3.13;;;;;;;17.01;100.00;62613.59;5073695;28;20204;-75
2022/07/20 04:30:31;;;;;;;7.47;3.37;;;;;;;17.96;100.00;62725.28;5074271;28;20224;-77
2022/07/20 04:32:59;;;;;;;12.80;3.30;;;;;;;18.14;100.00;62744.72;5073966;28;20207;-76
2022/07/20 04:35:26;;;;;;;6.47;3.03;;;;;;;18.19;100.00;62744.97;5074615;28;20215;-74
2022/07/20 04:37:56;;;;;;;10.57;4.13;;;;;;;18.16;100.00;62747.41;5074539;28;20211;-76
2022/07/20 04:40:28;;;;;;;11.17;3.57;;;;;;;18.04;100.00;62728.75;5073977;28;20244;-75
2022/07/20 04:42:56;;;;;;;19.23;3.80;;;;;;;18.68;100.00;62799.91;5074448;28;20230;-76
2022/07/20 04:45:23;;;;;;;10.10;3.20;;;;;;;18.61;100.00;62795.47;5073663;28;20196;-75
2022/07/20 04:47:51;;;;;;;16.93;3.43;;;;;;;18.76;100.00;62808.53;5073976;28;20203;-76
2022/07/20 04:50:18;;;;;;;9.40;3.33;;;;;;;18.76;100.00;62811.66;5072515;28;20200;-75
2022/07/20 04:52:45;;;;;;;16.33;3.30;;;;;;;19.07;100.00;62840.00;5073290;28;20204;-75
2022/07/20 04:55:13;;;;;;;9.10;3.47;;;;;;;19.28;100.00;62862.66;5087307;28;20191;-74
2022/07/20 04:57:46;;;;;;;9.70;3.03;;;;;;;18.95;100.00;62832.19;5084076;28;20594;-76
2022/07/20 05:00:13;;;;;;;8.33;3.20;;;;;;;19.55;100.00;62895.94;5073083;28;20563;-74
2022/07/20 05:02:41;;;;;;;9.17;3.17;;;;;;;19.50;100.00;62890.56;5080929;28;20225;-77
2022/07/20 05:05:09;;;;;;;6.57;3.30;;;;;;;19.29;100.00;62868.94;5076775;28;20208;-75
2022/07/20 05:07:39;;;;;;;8.23;3.70;;;;;;;18.39;100.00;62769.13;5072742;28;20192;-76
2022/07/20 05:10:10;;;;;;;6.23;3.63;;;;;;;19.15;100.00;62853.81;5088762;28;20206;-75
2022/07/20 05:12:38;;;;;;;10.10;3.47;;;;;;;19.02;100.00;62834.59;5093297;28;20273;-76
2022/07/20 05:15:09;;;;;;;5.33;3.60;;;;;;;18.98;100.00;62832.84;5087370;28;20204;-75
2022/07/20 05:17:37;;;;;;;9.43;3.87;;;;;;;19.21;100.00;62855.13;5072259;28;20227;-76
2022/07/20 05:20:07;;;;;;;11.00;3.53;;;;;;;19.58;100.00;62894.03;5072285;28;20197;-74
2022/07/20 05:22:36;;;;;;;10.43;3.17;;;;;;;19.76;100.00;62916.59;5072762;28;20315;-76
2022/07/20 05:25:05;;;;;;;4.10;3.13;;;;;;;19.87;100.00;62927.94;5083538;28;20232;-75
2022/07/20 05:27:32;;;;;;;7.80;3.33;;;;;;;19.81;100.00;62924.03;5091955;28;20203;-76
2022/07/20 05:30:01;;;;;;;8.30;3.47;;;;;;;20.00;100.00;62945.13;5092320;28;20219;-75
2022/07/20 05:32:35;;;;;;;9.53;3.53;;;;;;;20.18;100.00;62956.28;5092013;28;20229;-74
2022/07/20 05:35:02;;;;;;;11.83;3.33;;;;;;;20.51;100.00;62994.56;5081442;28;20211;-76
2022/07/20 05:37:29;;;;;;;6.93;3.23;;;;;;;20.33;100.00;62977.69;5077363;28;20192;-75
2022/07/20 05:39:57;;;;;;;8.77;3.17;;;;;;;20.58;100.00;63002.16;5074218;28;20254;-75
2022/07/20 05:42:25;;;;;;;7.40;4.03;;;;;;;19.94;100.00;62933.47;5091563;28;20195;-75
2022/07/20 05:44:55;;;;;;;9.97;3.70;;;;;;;20.78;100.00;63023.25;5090756;28;20195;-75
2022/07/20 05:47:23;;;;;;;10.57;3.70;;;;;;;20.88;100.00;63039.25;5072179;28;20192;-75
2022/07/20 05:49:52;;;;;;;14.13;3.70;;;;;;;19.99;100.00;62935.75;5072298;28;20671;-76
2022/07/20 05:52:20;;;;;;;6.83;3.50;;;;;;;21.35;100.00;63084.41;5078511;28;20225;-75
2022/07/20 05:54:47;;;;;;;7.53;3.83;;;;;;;21.58;100.00;63114.47;5081056;28;20200;-76
2022/07/20 05:57:20;;;;;;;4.77;3.30;;;;;;;20.66;100.00;63013.41;5072075;28;20199;-76
2022/07/20 05:59:49;;;;;;;8.57;3.93;;;;;;;21.93;100.00;63149.81;5084060;28;20676;-75
2022/07/20 06:02:17;;;;;;;6.20;3.50;;;;;;;21.23;100.00;63076.59;5091226;28;20255;-75
2022/07/20 06:04:44;;;;;;;12.20;3.90;;;;;;;22.14;100.00;63169.97;5092188;28;20227;-75
2022/07/20 06:07:14;;;;;;;8.03;3.50;;;;;;;22.71;100.00;63230.66;5091316;28;20195;-77
2022/07/20 06:09:41;;;;;;;11.20;3.87;;;;;;;22.85;100.00;63248.41;5077922;28;20299;-76
2022/07/20 06:12:10;;;;;;;10.13;3.63;;;;;;;22.90;100.00;63256.44;5091880;28;20202;-77
2022/07/20 06:14:38;;;;;;;13.23;4.00;;;;;;;23.19;100.00;63282.66;5092090;28;20204;-75
2022/07/20 06:17:05;;;;;;;6.73;3.33;;;;;;;23.17;100.00;63280.50;5098096;28;20198;-76
2022/07/20 06:19:33;;;;;;;17.47;4.27;;;;;;;22.37;100.00;63194.34;5077504;28;20203;-75
2022/07/20 06:22:00;;;;;;;15.73;4.40;;;;;;;23.67;100.00;63334.75;5070013;28;20592;-76
2022/07/20 06:24:30;;;;;;;14.73;3.70;;;;;;;23.79;100.00;63352.97;5072115;28;20237;-76
2022/07/20 06:26:57;;;;;;;14.90;3.93;;;;;;;23.62;100.00;63331.94;5072011;28;20204;-75
2022/07/20 06:29:25;;;;;;;6.67;3.37;;;;;;;23.67;100.00;63334.19;5076131;28;20203;-76
2022/07/20 06:31:52;;;;;;;12.13;3.70;;;;;;;23.35;100.00;63302.63;5072738;28;20196;-75
2022/07/20 06:34:19;;;;;;;10.87;4.17;;;;;;;24.07;100.00;63383.34;5072475;28;20201;-75
2022/07/20 06:36:47;;;;;;;8.90;3.80;;;;;;;24.10;100.00;63381.41;5082747;28;20213;-76
2022/07/20 06:39:16;;;;;;;8.53;3.90;;;;;;;24.51;100.00;63424.81;5071501;28;20202;-75
2022/07/20 06:41:47;;;;;;;6.77;3.50;;;;;;;24.66;100.00;63441.09;5075983;28;20194;-75
2022/07/20 06:44:14;;;;;;;8.37;3.60;;;;;;;24.35;100.00;63412.66;5079182;28;20304;-75
2022/07/20 06:46:42;;;;;;;10.10;3.90;;;;;;;24.56;100.00;63435.44;5071008;28;20620;-75
2022/07/20 06:49:09;;;;;;;14.67;3.70;;;;;;;24.67;100.00;63447.41;5071156;28;20729;-76
2022/07/20 06:51:36;;;;;;;11.60;4.03;;;;;;;24.38;100.00;63413.31;5071346;28;20210;-76
2022/07/20 06:54:03;;;;;;;10.20;4.33;;;;;;;24.35;100.00;63408.00;5070867;28;20202;-76
2022/07/20 06:56:32;;;;;;;9.17;3.70;;;;;;;24.82;100.00;63455.88;5081479;28;20202;-79
2022/07/20 06:59:01;;;;;;;12.23;3.80;;;;;;;25.06;100.00;63487.16;5090784;28;20207;-76
2022/07/20 07:01:30;;;;;;;9.63;4.03;;;;;;;25.11;100.00;63495.19;5081424;28;20639;-77
2022/07/20 07:04:00;;;;;;;7.67;3.20;;;;;;;24.82;100.00;63461.09;5086667;28;20232;-75
2022/07/20 07:06:28;;;;;;;6.83;3.57;;;;;;;24.31;100.00;63403.66;5090448;28;20232;-76
2022/07/20 07:08:57;;;;;;;5.37;3.23;;;;;;;24.75;100.00;63450.91;5090100;28;20204;-76
2022/07/20 07:11:24;;;;;;;13.43;4.37;;;;;;;24.99;100.00;63477.47;5091155;28;20203;-75
2022/07/20 07:13:53;;;;;;;23.20;3.77;;;;;;;25.31;100.00;63511.72;5072584;28;20275;-75
2022/07/20 07:16:24;;;;;;;11.27;3.90;;;;;;;25.47;100.00;63529.09;5070911;28;20642;-75
2022/07/20 07:18:52;;;;;;;10.43;3.50;;;;;;;25.54;100.00;63536.69;5071146;28;20227;-75
2022/07/20 07:21:19;;;;;;;13.03;3.73;;;;;;;25.75;100.00;63559.53;5082464;28;20653;-75
2022/07/20 07:23:49;;;;;;;11.33;3.93;;;;;;;24.89;100.00;63471.31;5070904;28;20242;-75
2022/07/20 07:26:17;;;;;;;7.40;3.37;;;;;;;25.13;100.00;63492.69;5081126;28;20232;-76
2022/07/20 07:28:44;;;;;;;14.40;4.00;;;;;;;26.24;100.00;63616.94;5090739;28;20195;-75
2022/07/20 07:31:12;;;;;;;14.53;3.50;;;;;;;26.70;100.00;63661.72;5089602;28;20203;-75
2022/07/20 07:33:43;;;;;;;16.43;4.57;;;;;;;27.08;100.00;63703.06;5089924;28;20198;-76
2022/07/20 07:36:10;;;;;;;12.30;3.57;;;;;;;27.10;100.00;63704.69;5090024;28;20210;-75
2022/07/20 07:38:38;;;;;;;12.97;3.50;;;;;;;26.21;100.00;63616.28;5089928;28;20199;-75
2022/07/20 07:41:06;;;;;;;10.93;3.83;;;;;;;27.12;100.00;63707.44;5095019;28;20199;-76
2022/07/20 07:43:42;;;;;;;8.57;3.30;;;;;;;27.58;100.00;63756.94;5092878;28;20237;-76
2022/07/20 07:46:11;;;;;;;11.07;3.60;;;;;;;27.41;100.00;63738.44;5080295;28;20208;-77
2022/07/20 07:48:41;;;;;;;5.90;3.67;;;;;;;26.72;100.00;63667.06;5074794;28;20212;-77
2022/07/20 07:51:11;;;;;;;8.77;3.00;;;;;;;26.01;100.00;63584.63;5074664;28;20647;-76
2022/07/20 07:53:43;;;;;;;8.33;2.87;;;;;;;25.35;100.00;63520.72;5074474;28;20257;-76
2022/07/20 07:56:11;;;;;;;9.47;3.30;;;;;;;25.79;100.00;63563.88;5074423;28;20224;-74
2022/07/20 07:58:44;;;;;;;10.53;3.40;;;;;;;26.01;100.00;63587.22;5092353;28;20673;-75
2022/07/20 08:01:13;;;;;;;8.10;2.90;;;;;;;26.50;100.00;63639.97;5069526;28;20199;-75
2022/07/20 08:03:46;;;;;;;7.43;2.87;;;;;;;26.75;100.00;63667.72;5079320;28;20235;-77
2022/07/20 08:06:13;;;;;;;6.33;3.50;;;;;;;28.07;100.00;63810.28;5074471;28;20196;-77
2022/07/20 08:08:42;;;;;;;10.47;3.37;;;;;;;27.05;100.00;63699.25;5073945;28;20207;-76
2022/07/20 08:11:11;;;;;;;10.83;3.40;;;;;;;27.66;100.00;63765.09;5074266;28;20200;-75
2022/07/20 08:13:39;;;;;;;9.97;3.47;;;;;;;28.08;99.16;63810.84;5073858;28;20202;-75
2022/07/20 08:16:07;;;;;;;11.20;3.60;;;;;;;27.56;87.16;63752.69;5061231;28;20218;-76
2022/07/20 08:18:34;;;;;;;7.87;3.23;;;;;;;28.83;84.21;63897.78;5074477;28;20239;-76
2022/07/20 08:21:03;;;;;;;11.80;3.40;;;;;;;28.78;79.59;63892.34;5073876;28;20196;-76
2022/07/20 08:23:30;;;;;;;9.13;2.93;;;;;;;28.79;82.78;63885.56;5074042;28;20239;-78
2022/07/20 08:25:57;;;;;;;5.80;3.43;;;;;;;28.74;82.22;63882.72;5074432;28;20251;-79
2022/07/20 08:28:25;;;;;;;11.40;3.77;;;;;;;29.13;72.22;63925.22;5074607;28;20636;-75
2022/07/20 08:30:55;;;;;;;10.20;3.80;;;;;;;29.08;70.06;63919.22;5074128;28;20204;-77
2022/07/20 08:33:24;;;;;;;7.97;3.20;;;;;;;28.55;74.30;63859.44;5077013;28;20207;-76
2022/07/20 08:35:52;;;;;;;6.93;2.60;;;;;;;28.41;73.09;63846.78;5088193;28;20222;-75
2022/07/20 08:38:23;;;;;;;4.87;2.87;;;;;;;28.12;70.24;63815.19;5077922;28;20208;-76
2022/07/20 08:40:52;;;;;;;3.47;2.40;;;;;;;27.28;70.30;63724.84;5083571;28;20199;-76
2022/07/20 08:43:20;;;;;;;5.47;2.93;;;;;;;28.27;70.31;63831.53;5076615;28;20200;-76
2022/07/20 08:45:50;;;;;;;8.00;2.30;;;;;;;28.53;72.56;63862.47;5072282;28;20564;-76
2022/07/20 08:48:19;;;;;;;9.87;2.30;;;;;;;29.10;66.47;63921.94;5086544;28;20196;-76
2022/07/20 08:50:49;;;;;;;6.77;2.23;;;;;;;29.32;63.95;63945.41;5073107;28;20216;-76
2022/07/20 08:53:18;;;;;;;4.13;2.00;;;;;;;29.29;63.22;63942.13;5073311;28;20200;-77
2022/07/20 08:55:48;;;;;;;10.93;2.30;;;;;;;29.20;66.69;63932.88;5073947;28;20254;-76
2022/07/20 08:58:17;;;;;;;3.47;1.90;;;;;;;29.41;64.27;63954.66;5074007;28;20205;-76
2022/07/20 09:00:48;;;;;;;5.53;2.20;;;;;;;28.85;62.79;63899.97;5073200;28;20258;-74
2022/07/20 09:03:16;;;;;;;8.07;2.40;;;;;;;30.00;59.70;64019.53;5074097;28;20242;-77
2022/07/20 09:05:46;;;;;;;2.20;2.00;;;;;;;29.15;60.29;63927.44;5073741;28;20589;-76
2022/07/20 09:08:17;;;;;;;8.87;2.53;;;;;;;29.51;60.86;63965.56;5072913;28;20203;-74
2022/07/20 09:10:55;;;;;;;5.70;2.07;;;;;;;28.72;60.59;63883.19;5073002;28;20208;-77
2022/07/20 09:13:28;;;;;;;1.87;1.70;;;;;;;29.11;61.60;63923.06;5071618;28;20371;-78
2022/07/20 09:15:57;;;;;;;6.57;2.40;;;;;;;28.68;63.17;63878.28;5073152;28;20208;-74
2022/07/20 09:18:27;;;;;;;3.93;2.40;;;;;;;28.86;63.50;63895.25;5076804;28;20394;-77
2022/07/20 09:20:56;;;;;;;6.30;2.00;;;;;;;28.72;61.10;63880.00;5074810;28;20673;-76
2022/07/20 09:23:27;;;;;;;2.80;2.17;;;;;;;29.08;63.50;63914.53;5071085;28;20705;-75
2022/07/20 09:25:59;;;;;;;6.53;2.40;;;;;;;29.79;63.47;63998.75;5071190;28;20283;-75
2022/07/20 09:28:38;;;;;;;7.87;2.33;;;;;;;30.13;63.77;64033.19;5072394;28;20202;-77
2022/07/20 09:31:13;;;;;;;3.27;2.00;;;;;;;29.40;61.95;63950.97;5072878;28;20193;-76
2022/07/20 09:34:02;;;;;;;3.70;1.87;;;;;;;30.35;58.15;64057.19;5089922;28;20287;-77
2022/07/20 09:36:31;;;;;;;2.17;1.93;;;;;;;29.23;59.46;63935.59;5074881;28;20678;-76
2022/07/20 09:39:07;;;;;;;7.97;2.50;;;;;;;29.09;63.20;63918.25;5086007;28;20196;-75
2022/07/20 09:41:39;;;;;;;4.07;2.10;;;;;;;29.64;61.89;63979.75;5091586;28;20612;-74
2022/07/20 09:44:10;;;;;;;6.77;1.83;;;;;;;30.24;60.08;64044.63;5080532;28;20254;-75
2022/07/20 09:46:41;;;;;;;2.10;1.83;;;;;;;29.99;57.44;64017.91;5072782;28;20202;-75
2022/07/20 09:49:14;;;;;;;4.00;1.87;;;;;;;30.12;57.91;64032.09;5072329;28;20255;-75
2022/07/20 09:51:45;;;;;;;3.80;1.80;;;;;;;30.05;59.35;64024.47;5071189;28;20305;-76
2022/07/20 09:54:15;;;;;;;5.43;2.30;;;;;;;29.99;60.67;64023.72;5085685;28;20214;-77
2022/07/20 09:56:47;;;;;;;7.10;2.20;;;;;;;30.10;61.63;64027.28;5072741;28;20202;-76
2022/07/20 09:59:16;;;;;;;8.53;2.27;;;;;;;30.53;59.32;64076.84;5080875;28;20233;-75
2022/07/20 10:01:49;;;;;;;7.83;2.77;;;;;;;29.65;60.35;63986.09;5081053;28;20206;-76
2022/07/20 10:04:19;;;;;;;3.73;2.10;;;;;;;30.92;59.41;64123.56;5071821;28;20650;-76
2022/07/20 10:06:48;;;;;;;5.40;2.03;;;;;;;31.39;58.92;64174.91;5071153;28;20204;-76
2022/07/20 10:09:17;;;;;;;5.60;2.13;;;;;;;31.42;56.99;64178.72;5074282;28;20227;-77
2022/07/20 10:11:54;;;;;;;8.23;2.10;;;;;;;31.14;55.64;64142.31;5074607;28;20624;-76
2022/07/20 10:14:24;;;;;;;4.13;1.93;;;;;;;30.52;53.05;64075.75;5074236;28;20204;-76
2022/07/20 10:16:56;;;;;;;6.33;2.50;;;;;;;30.18;55.08;64038.66;5074028;28;20204;-75
2022/07/20 10:19:45;;;;;;;4.40;1.73;;;;;;;30.19;56.30;64039.72;5074185;28;20219;-77
2022/07/20 10:22:18;;;;;;;6.13;2.37;;;;;;;29.76;56.81;63993.38;5073406;28;20684;-78
2022/07/20 10:24:47;;;;;;;3.43;2.27;;;;;;;29.40;57.43;63953.59;5072246;28;20687;-78
2022/07/20 10:27:29;;;;;;;5.73;2.40;;;;;;;30.15;60.52;64035.38;5073399;28;20562;-76
2022/07/20 10:30:15;;;;;;;3.30;2.00;;;;;;;30.94;55.29;64120.50;5071151;28;20284;-76
2022/07/20 10:32:56;;;;;;;5.73;2.10;;;;;;;31.44;54.10;64175.63;5075661;28;20191;-75
2022/07/20 10:35:28;;;;;;;11.37;2.20;;;;;;;31.94;52.48;64229.72;5075636;28;20299;-75
2022/07/20 10:37:58;;;;;;;6.03;2.33;;;;;;;31.99;55.06;64243.09;5072574;28;20205;-76
2022/07/20 10:40:28;;;;;;;2.90;2.10;;;;;;;32.14;52.56;64251.00;5073549;28;20211;-75
2022/07/20 10:43:13;;;;;;;3.97;2.10;;;;;;;31.75;51.77;64208.94;5073003;28;20353;-75
2022/07/20 10:45:46;;;;;;;2.57;2.20;;;;;;;31.79;53.39;64213.31;5072250;28;20220;-75
2022/07/20 10:48:21;;;;;;;5.50;2.10;;;;;;;31.33;55.33;64170.97;5073204;28;20204;-78
2022/07/20 10:50:52;;;;;;;4.73;2.37;;;;;;;31.85;51.59;64219.31;5071104;28;20208;-77
2022/07/20 10:53:59;;;;;;;2.90;2.20;;;;;;;32.15;52.71;64255.28;5083306;28;20581;-77
2022/07/20 10:56:31;;;;;;;7.63;2.63;;;;;;;31.27;52.50;64156.53;5074238;28;20571;-76
2022/07/20 10:59:04;;;;;;;5.53;2.20;;;;;;;32.04;54.76;64240.06;5091043;28;20608;-76
2022/07/20 11:01:33;;;;;;;8.67;2.47;;;;;;;31.29;53.27;64156.06;5090686;28;20206;-75
2022/07/20 11:04:01;;;;;;;4.80;2.00;;;;;;;31.54;49.87;64186.56;5089247;28;20204;-75
2022/07/20 11:06:31;;;;;;;2.50;1.90;;;;;;;31.58;50.73;64190.94;5077411;28;20289;-76
2022/07/20 11:09:00;;;;;;;3.83;2.07;;;;;;;31.74;50.27;64207.84;5065473;28;20220;-77
2022/07/20 11:11:30;;;;;;;4.67;2.10;;;;;;;32.39;49.04;64278.88;5077508;28;20293;-76
2022/07/20 11:14:01;;;;;;;4.60;2.10;;;;;;;33.43;47.90;64390.94;5072572;28;20211;-75
2022/07/20 11:16:30;;;;;;;9.53;2.10;;;;;;;33.52;48.70;64400.78;5075712;28;20194;-75
2022/07/20 11:18:58;;;;;;;3.83;1.90;;;;;;;33.53;46.41;64402.44;5078295;28;20673;-76
2022/07/20 11:21:30;;;;;;;2.73;2.17;;;;;;;33.35;47.15;64382.72;5076057;28;20215;-76
2022/07/20 11:23:57;;;;;;;4.87;2.10;;;;;;;33.19;46.98;64365.25;5085407;28;20234;-76
2022/07/20 11:26:25;;;;;;;2.60;1.90;;;;;;;33.32;46.11;64381.56;5077287;28;20233;-75
2022/07/20 11:28:54;;;;;;;4.23;2.30;;;;;;;32.55;47.96;64293.19;5074929;28;20270;-77
2022/07/20 11:31:28;;;;;;;5.23;2.10;;;;;;;33.05;47.21;64353.13;5075312;28;20191;-76
2022/07/20 11:34:00;;;;;;;3.23;2.40;;;;;;;32.35;47.21;64274.50;5075199;28;20203;-76
2022/07/20 11:36:29;;;;;;;4.13;2.37;;;;;;;32.95;49.93;64344.25;5075129;28;20252;-77
2022/07/20 11:38:58;;;;;;;4.03;2.10;;;;;;;33.25;46.76;64369.16;5075511;28;20202;-77
2022/07/20 11:41:36;;;;;;;3.10;1.83;;;;;;;32.14;47.18;64251.56;5075149;28;20195;-76